createdAt,value
2018-07-04T00:00:12.072Z,6.93
2018-07-04T00:02:52.485Z,8.07
2018-07-04T00:05:32.947Z,8.53
2018-07-04T00:08:12.796Z,9.20
2018-07-04T00:10:53.049Z,7.03
2018-07-04T00:13:32.826Z,6.53
2018-07-04T00:16:12.566Z,7.03
2018-07-04T00:18:53.010Z,8.27
2018-07-04T00:21:32.739Z,8.40
2018-07-04T00:24:12.496Z,8.60
2018-07-04T00:26:52.946Z,10.33
2018-07-04T00:29:33.366Z,7.17
2018-07-04T00:32:13.825Z,8.00
2018-07-04T00:34:53.678Z,7.80
2018-07-04T00:37:33.768Z,6.50
2018-07-04T00:40:13.685Z,8.40
2018-07-04T00:42:53.398Z,7.33
2018-07-04T00:45:33.907Z,7.53
2018-07-04T00:48:13.658Z,6.00
2018-07-04T00:50:53.416Z,7.37
2018-07-04T00:53:32.933Z,6.70
2018-07-04T00:56:12.461Z,9.43
2018-07-04T00:58:53.074Z,7.57
2018-07-04T01:01:33.011Z,6.80
2018-07-04T01:04:12.877Z,6.60
2018-07-04T01:06:52.647Z,6.80
2018-07-04T01:09:32.172Z,7.83
2018-07-04T01:12:11.937Z,6.93
2018-07-04T01:14:51.663Z,8.83
2018-07-04T01:17:31.533Z,10.57
2018-07-04T01:20:11.215Z,7.37
2018-07-04T01:22:50.982Z,7.03
2018-07-04T01:25:30.725Z,7.87
2018-07-04T01:28:10.629Z,7.50
2018-07-04T01:30:51.355Z,7.33
2018-07-04T01:33:31.101Z,7.23
2018-07-04T01:36:11.047Z,7.30
2018-07-04T01:38:50.960Z,7.97
2018-07-04T01:41:30.665Z,8.97
2018-07-04T01:44:10.554Z,8.77
2018-07-04T01:46:50.246Z,7.53
2018-07-04T01:49:29.897Z,7.57
2018-07-04T01:52:09.729Z,7.50
2018-07-04T01:54:49.876Z,8.03
2018-07-04T01:57:29.534Z,8.10
2018-07-04T02:00:10.331Z,8.90
2018-07-04T02:02:50.160Z,9.60
2018-07-04T02:05:29.897Z,12.77
2018-07-04T02:08:10.333Z,10.40
2018-07-04T02:10:50.232Z,7.73
2018-07-04T02:13:29.933Z,7.80
2018-07-04T02:16:09.639Z,7.97
2018-07-04T02:18:49.609Z,9.13
2018-07-04T02:21:29.285Z,8.50
2018-07-04T02:24:10.288Z,7.50
2018-07-04T02:26:50.185Z,7.40
2018-07-04T02:29:30.070Z,9.30
2018-07-04T02:32:10.504Z,7.10
2018-07-04T02:34:50.642Z,9.60
2018-07-04T02:37:30.190Z,7.70
2018-07-04T02:40:09.720Z,7.80
2018-07-04T02:42:49.577Z,7.90
2018-07-04T02:45:29.443Z,8.83
2018-07-04T02:48:09.183Z,8.07
2018-07-04T02:50:49.617Z,7.70
2018-07-04T02:53:29.448Z,7.50
2018-07-04T02:56:09.253Z,8.50
2018-07-04T02:58:49.128Z,8.23
2018-07-04T03:01:30.383Z,7.70
2018-07-04T03:04:10.436Z,8.80
2018-07-04T03:06:50.238Z,9.47
2018-07-04T03:09:29.972Z,8.00
2018-07-04T03:12:09.830Z,9.03
2018-07-04T03:14:50.144Z,7.80
2018-07-04T03:17:30.104Z,11.80
2018-07-04T03:20:09.658Z,12.20
2018-07-04T03:22:49.614Z,10.30
2018-07-04T03:25:29.429Z,11.90
2018-07-04T03:28:09.453Z,15.87
2018-07-04T03:30:49.619Z,8.20
2018-07-04T03:33:29.433Z,8.47
2018-07-04T03:36:10.586Z,9.10
2018-07-04T03:38:50.636Z,9.30
2018-07-04T03:41:30.589Z,8.40
2018-07-04T03:44:10.281Z,8.07
2018-07-04T03:46:49.900Z,9.90
2018-07-04T03:49:30.285Z,7.50
2018-07-04T03:52:10.336Z,10.30
2018-07-04T03:54:50.389Z,8.30
2018-07-04T03:57:30.698Z,8.00
2018-07-04T04:00:10.481Z,9.23
2018-07-04T04:02:50.243Z,8.63
2018-07-04T04:05:30.054Z,9.80
2018-07-04T04:08:09.786Z,12.50
2018-07-04T04:10:49.509Z,8.83
2018-07-04T04:13:29.332Z,9.73
2018-07-04T04:16:09.035Z,8.83
2018-07-04T04:18:48.761Z,9.40
2018-07-04T04:21:28.574Z,9.13
2018-07-04T04:24:08.452Z,8.63
2018-07-04T04:26:48.274Z,13.37
2018-07-04T04:29:28.211Z,15.50
2018-07-04T04:32:08.280Z,16.23
2018-07-04T04:34:48.874Z,11.83
2018-07-04T04:37:29.331Z,16.13
2018-07-04T04:40:09.725Z,15.37
2018-07-04T04:42:49.426Z,15.43
2018-07-04T04:45:29.121Z,15.60
2018-07-04T04:48:08.997Z,15.10
2018-07-04T04:50:48.579Z,16.43
2018-07-04T04:53:28.270Z,15.20
2018-07-04T04:56:08.224Z,9.13
2018-07-04T04:58:47.922Z,8.70
2018-07-04T05:01:27.847Z,9.57
2018-07-04T05:04:09.209Z,10.70
2018-07-04T05:06:49.649Z,8.83
2018-07-04T05:09:29.451Z,9.00
2018-07-04T05:12:09.401Z,8.80
2018-07-04T05:14:49.243Z,12.13
2018-07-04T05:17:29.141Z,9.93
2018-07-04T05:20:08.839Z,9.90
2018-07-04T05:22:48.555Z,11.90
2018-07-04T05:25:29.001Z,9.20
2018-07-04T05:28:08.854Z,8.43
2018-07-04T05:30:48.462Z,11.27
2018-07-04T05:33:28.153Z,9.60
2018-07-04T05:36:08.215Z,10.80
2018-07-04T05:38:48.055Z,9.60
2018-07-04T05:41:28.077Z,11.27
2018-07-04T05:44:07.711Z,9.37
2018-07-04T05:46:47.613Z,9.07
2018-07-04T05:49:27.263Z,8.90
2018-07-04T05:52:07.043Z,12.73
2018-07-04T05:54:46.680Z,11.33
2018-07-04T05:57:26.627Z,9.63
2018-07-04T06:00:06.304Z,8.13
2018-07-04T06:02:46.081Z,10.87
2018-07-04T06:05:25.890Z,9.03
2018-07-04T06:08:05.646Z,13.37
2018-07-04T06:10:45.384Z,8.30
2018-07-04T06:13:25.002Z,10.53
2018-07-04T06:16:04.704Z,10.00
2018-07-04T06:18:45.393Z,11.13
2018-07-04T06:21:25.146Z,8.20
2018-07-04T06:24:04.911Z,8.63
2018-07-04T06:26:45.038Z,10.07
2018-07-04T06:29:25.021Z,9.67
2018-07-04T06:32:05.008Z,8.20
2018-07-04T06:34:44.645Z,8.20
2018-07-04T06:37:25.602Z,10.77
2018-07-04T06:39:52.930Z,9.30
2018-07-04T06:42:20.290Z,8.33
2018-07-04T06:44:48.068Z,8.90
2018-07-04T06:47:15.440Z,9.60
2018-07-04T06:49:43.479Z,10.57
2018-07-04T06:52:11.008Z,8.70
2018-07-04T06:54:38.649Z,10.47
2018-07-04T06:57:06.022Z,8.60
2018-07-04T06:59:33.982Z,7.63
2018-07-04T07:02:12.190Z,8.60
2018-07-04T07:04:53.953Z,8.37
2018-07-04T07:07:34.291Z,8.40
2018-07-04T07:10:14.025Z,8.57
2018-07-04T07:12:53.834Z,12.90
2018-07-04T07:15:34.838Z,8.60
2018-07-04T07:18:15.356Z,7.87
2018-07-04T07:20:55.047Z,8.90
2018-07-04T07:23:34.773Z,9.20
2018-07-04T07:26:14.737Z,7.77
2018-07-04T07:28:54.855Z,10.70
2018-07-04T07:31:34.589Z,8.90
2018-07-04T07:34:14.363Z,10.20
2018-07-04T07:36:53.939Z,7.67
2018-07-04T07:39:33.900Z,9.73
2018-07-04T07:42:14.317Z,8.53
2018-07-04T07:44:53.977Z,8.07
2018-07-04T07:47:33.730Z,7.30
2018-07-04T07:50:13.973Z,7.90
2018-07-04T07:52:54.203Z,8.10
2018-07-04T07:55:33.888Z,7.33
2018-07-04T07:58:14.007Z,7.30
2018-07-04T08:00:54.102Z,8.30
2018-07-04T08:03:34.456Z,7.23
2018-07-04T08:06:14.198Z,7.40
2018-07-04T08:08:53.932Z,8.07
2018-07-04T08:11:34.139Z,6.83
2018-07-04T08:14:14.539Z,6.60
2018-07-04T08:16:54.361Z,6.70
2018-07-04T08:19:34.022Z,5.73
2018-07-04T08:22:13.674Z,7.40
2018-07-04T08:24:53.435Z,7.63
2018-07-04T08:27:33.095Z,7.77
2018-07-04T08:30:13.312Z,6.63
2018-07-04T08:32:53.029Z,7.00
2018-07-04T08:35:33.304Z,7.70
2018-07-04T08:38:13.412Z,7.40
2018-07-04T08:40:53.085Z,11.60
2018-07-04T08:43:32.954Z,8.63
2018-07-04T08:46:12.697Z,8.70
2018-07-04T08:48:52.391Z,8.87
2018-07-04T08:51:33.239Z,7.80
2018-07-04T08:54:12.970Z,7.97
2018-07-04T08:56:53.397Z,8.00
2018-07-04T08:59:33.040Z,8.83
2018-07-04T09:02:12.748Z,8.30
2018-07-04T09:04:52.455Z,10.70
2018-07-04T09:07:32.124Z,9.57
2018-07-04T09:10:12.017Z,7.57
2018-07-04T09:12:51.875Z,8.20
2018-07-04T09:15:31.551Z,8.63
2018-07-04T09:18:11.697Z,7.10
2018-07-04T09:20:52.216Z,7.60
2018-07-04T09:23:31.965Z,8.57
2018-07-04T09:26:12.175Z,9.83
2018-07-04T09:28:52.839Z,7.10
2018-07-04T09:31:32.681Z,7.07
2018-07-04T09:34:12.418Z,17.83
2018-07-04T09:36:52.071Z,9.70
2018-07-04T09:39:31.816Z,6.63
2018-07-04T09:42:11.398Z,6.77
2018-07-04T09:44:51.129Z,6.67
2018-07-04T09:47:30.898Z,7.13
2018-07-04T09:50:10.690Z,7.87
2018-07-04T09:57:49.838Z,9.47
2018-07-04T10:00:30.484Z,10.77
2018-07-04T10:03:11.165Z,7.97
2018-07-04T10:05:51.118Z,16.13
2018-07-04T10:08:31.007Z,18.00
2018-07-04T10:11:10.560Z,11.33
2018-07-04T10:13:50.470Z,8.50
2018-07-04T10:16:30.173Z,10.90
2018-07-04T10:19:09.974Z,9.03
2018-07-04T10:21:49.707Z,9.20
2018-07-04T10:24:29.468Z,8.13
2018-07-04T10:27:09.386Z,8.07
2018-07-04T10:29:49.075Z,8.40
2018-07-04T10:32:28.836Z,7.37
2018-07-04T10:35:08.659Z,7.60
2018-07-04T10:37:48.408Z,9.33
2018-07-04T10:40:28.273Z,7.37
2018-07-04T10:43:08.400Z,8.43
2018-07-04T10:45:48.053Z,7.33
2018-07-04T10:48:28.648Z,9.43
2018-07-04T10:51:08.769Z,6.13
2018-07-04T10:53:48.382Z,10.43
2018-07-04T10:56:28.226Z,7.23
2018-07-04T10:59:07.918Z,8.10
2018-07-04T11:01:47.550Z,7.53
2018-07-04T11:04:27.770Z,8.87
2018-07-04T11:07:07.628Z,9.23
2018-07-04T11:09:47.489Z,9.80
2018-07-04T11:12:27.054Z,8.70
2018-07-04T11:15:06.755Z,7.17
2018-07-04T11:17:46.417Z,10.27
2018-07-04T11:20:26.086Z,8.10
2018-07-04T11:23:05.788Z,7.60
2018-07-04T11:25:45.505Z,8.37
2018-07-04T11:28:25.384Z,11.13
2018-07-04T11:31:05.681Z,10.87
2018-07-04T11:33:45.573Z,7.17
2018-07-04T11:36:25.281Z,11.50
2018-07-04T11:39:04.837Z,8.17
2018-07-04T11:41:44.598Z,8.23
2018-07-04T11:44:24.292Z,7.87
2018-07-04T11:46:51.667Z,10.23
2018-07-04T11:49:18.999Z,7.23
2018-07-04T11:51:46.331Z,8.40
2018-07-04T11:54:13.683Z,10.40
2018-07-04T11:56:41.142Z,7.70
2018-07-04T11:59:08.490Z,7.67
2018-07-04T12:01:35.812Z,8.40
2018-07-04T12:04:15.536Z,9.20
2018-07-04T12:06:55.128Z,7.63
2018-07-04T12:09:22.445Z,7.80
2018-07-04T12:11:49.786Z,10.67
2018-07-04T12:14:17.086Z,7.50
2018-07-04T12:16:44.461Z,7.70
2018-07-04T12:19:11.883Z,7.17
2018-07-04T12:21:39.235Z,7.03
2018-07-04T12:24:06.542Z,7.20
2018-07-04T12:26:33.883Z,8.80
2018-07-04T12:29:01.216Z,11.17
2018-07-04T12:31:28.597Z,7.80
2018-07-04T12:33:55.923Z,9.77
2018-07-04T12:36:23.296Z,11.80
2018-07-04T12:38:50.673Z,9.70
2018-07-04T12:41:18.146Z,7.70
2018-07-04T12:43:45.477Z,10.40
2018-07-04T12:46:12.793Z,7.50
2018-07-04T12:48:40.182Z,10.97
2018-07-04T12:51:07.842Z,7.40
2018-07-04T12:53:35.283Z,8.60
2018-07-04T12:56:15.063Z,6.20
2018-07-04T12:58:54.820Z,5.60
2018-07-04T13:01:34.486Z,6.97
2018-07-04T13:04:14.841Z,5.53
2018-07-04T13:06:54.663Z,6.63
2018-07-04T13:09:34.424Z,6.07
2018-07-04T13:12:14.302Z,5.30
2018-07-04T13:14:53.996Z,5.87
2018-07-04T13:17:34.113Z,5.43
2018-07-04T13:20:13.855Z,6.30
2018-07-04T13:22:53.550Z,6.07
2018-07-04T13:25:33.410Z,5.80
2018-07-04T13:28:13.149Z,6.70
2018-07-04T13:30:52.644Z,5.97
2018-07-04T13:33:32.366Z,5.90
2018-07-04T13:36:12.119Z,12.37
2018-07-04T13:38:51.922Z,7.17
2018-07-04T13:41:32.795Z,6.80
2018-07-04T13:44:13.043Z,5.83
2018-07-04T13:46:52.876Z,6.13
2018-07-04T13:49:32.747Z,6.77
2018-07-04T13:52:12.641Z,6.37
2018-07-04T13:54:52.376Z,6.97
2018-07-04T13:57:32.152Z,6.37
2018-07-04T14:00:13.096Z,7.13
2018-07-04T14:02:52.773Z,6.43
2018-07-04T14:05:32.530Z,6.53
2018-07-04T14:08:12.480Z,6.20
2018-07-04T14:10:52.737Z,5.93
2018-07-04T14:13:32.686Z,5.70
2018-07-04T14:16:12.458Z,6.20
2018-07-04T14:18:52.423Z,6.03
2018-07-04T14:21:32.091Z,5.27
2018-07-04T14:24:12.793Z,6.13
2018-07-04T14:26:52.641Z,7.37
2018-07-04T14:29:32.431Z,7.63
2018-07-04T14:32:12.776Z,6.10
2018-07-04T14:34:52.551Z,7.30
2018-07-04T14:37:32.276Z,5.43
2018-07-04T14:40:12.142Z,5.83
2018-07-04T14:42:52.035Z,5.67
2018-07-04T14:45:33.664Z,5.80
2018-07-04T14:48:13.578Z,9.43
2018-07-04T14:50:53.847Z,5.83
2018-07-04T14:53:33.473Z,6.60
2018-07-04T14:56:13.372Z,6.97
2018-07-04T14:58:53.089Z,7.53
2018-07-04T15:01:32.909Z,7.63
2018-07-04T15:04:12.802Z,6.60
2018-07-04T15:06:52.583Z,6.03
2018-07-04T15:09:32.440Z,7.43
2018-07-04T15:12:12.307Z,7.40
2018-07-04T15:14:51.950Z,8.33
2018-07-04T15:17:31.776Z,10.57
2018-07-04T15:20:11.627Z,6.63
2018-07-04T15:22:51.732Z,5.97
2018-07-04T15:25:31.383Z,6.60
2018-07-04T15:28:11.059Z,6.30
2018-07-04T15:30:51.272Z,5.60
2018-07-04T15:33:31.002Z,7.40
2018-07-04T15:36:10.935Z,7.17
2018-07-04T15:38:50.555Z,5.33
2018-07-04T15:41:30.533Z,6.60
2018-07-04T15:44:11.417Z,5.23
2018-07-04T15:46:51.897Z,6.47
2018-07-04T15:49:31.792Z,4.87
2018-07-04T15:52:11.668Z,4.93
2018-07-04T15:54:51.985Z,4.90
2018-07-04T15:57:32.442Z,5.63
2018-07-04T16:00:12.542Z,6.10
2018-07-04T16:02:53.666Z,4.50
2018-07-04T16:05:33.383Z,5.30
2018-07-04T16:08:13.416Z,5.30
2018-07-04T16:10:53.329Z,5.50
2018-07-04T16:13:33.056Z,5.23
2018-07-04T16:16:12.711Z,5.53
2018-07-04T16:18:52.535Z,5.33
2018-07-04T16:21:32.263Z,6.07
2018-07-04T16:24:12.708Z,6.77
2018-07-04T16:26:52.943Z,6.53
2018-07-04T16:29:32.837Z,5.80
2018-07-04T16:32:12.849Z,4.83
2018-07-04T16:34:52.640Z,5.57
2018-07-04T16:37:32.457Z,5.93
2018-07-04T16:40:12.226Z,5.23
2018-07-04T16:42:51.979Z,5.00
2018-07-04T16:45:32.144Z,6.57
2018-07-04T16:48:11.946Z,5.67
2018-07-04T16:50:51.636Z,5.53
2018-07-04T16:53:31.448Z,5.90
2018-07-04T16:56:11.404Z,9.67
2018-07-04T16:58:51.280Z,6.27
2018-07-04T17:01:31.194Z,6.00
2018-07-04T17:04:11.526Z,5.83
2018-07-04T17:06:51.383Z,5.97
2018-07-04T17:09:31.157Z,6.00
2018-07-04T17:12:10.912Z,9.30
2018-07-04T17:14:50.518Z,5.90
2018-07-04T17:17:30.694Z,6.30
2018-07-04T17:20:11.167Z,6.60
2018-07-04T17:22:50.943Z,6.50
2018-07-04T17:25:30.750Z,6.00
2018-07-04T17:28:10.439Z,6.23
2018-07-04T17:30:50.109Z,8.80
2018-07-04T17:33:29.855Z,6.73
2018-07-04T17:36:10.749Z,7.30
2018-07-04T17:38:50.907Z,6.93
2018-07-04T17:41:30.934Z,8.87
2018-07-04T17:44:10.769Z,6.77
2018-07-04T17:46:50.797Z,6.70
2018-07-04T17:49:30.618Z,6.43
2018-07-04T17:52:13.374Z,5.83
2018-07-04T17:54:54.360Z,6.37
2018-07-04T17:57:35.056Z,7.17
2018-07-04T18:00:15.184Z,9.07
2018-07-04T18:02:55.207Z,8.90
2018-07-04T18:05:35.227Z,9.30
2018-07-04T18:08:16.589Z,11.53
2018-07-04T18:10:56.329Z,8.07
2018-07-04T18:13:36.707Z,8.23
2018-07-04T18:16:17.366Z,8.83
2018-07-04T18:18:58.144Z,9.00
2018-07-04T18:21:38.752Z,8.43
2018-07-04T18:24:18.499Z,8.27
2018-07-04T18:26:59.739Z,9.70
2018-07-04T18:29:39.356Z,8.30
2018-07-04T18:32:19.128Z,12.63
2018-07-04T18:34:59.023Z,11.53
2018-07-04T18:37:38.664Z,9.40
2018-07-04T18:40:18.337Z,12.93
2018-07-04T18:42:57.915Z,10.97
2018-07-04T18:45:39.033Z,8.17
2018-07-04T18:48:19.060Z,9.07
2018-07-04T18:50:59.209Z,10.80
2018-07-04T18:53:45.578Z,10.33
2018-07-04T18:56:25.284Z,8.40
2018-07-04T18:59:05.206Z,8.77
2018-07-04T19:01:45.167Z,8.87
2018-07-04T19:04:24.954Z,10.30
2018-07-04T19:07:06.260Z,11.83
2018-07-04T19:09:45.917Z,11.20
2018-07-04T19:12:25.922Z,9.70
2018-07-04T19:15:05.904Z,11.73
2018-07-04T19:17:46.169Z,7.70
2018-07-04T19:20:25.829Z,14.80
2018-07-04T19:23:05.596Z,11.60
2018-07-04T19:25:55.409Z,11.43
2018-07-04T19:28:35.263Z,11.40
2018-07-04T19:31:15.050Z,12.50
2018-07-04T19:33:55.094Z,15.33
2018-07-04T19:36:34.767Z,13.97
2018-07-04T19:39:14.536Z,12.43
2018-07-04T19:41:54.252Z,13.10
2018-07-04T19:44:34.159Z,14.17
2018-07-04T19:47:14.972Z,11.17
2018-07-04T19:49:55.120Z,13.03
2018-07-04T19:52:34.780Z,13.37
2018-07-04T19:55:14.449Z,20.93
2018-07-04T19:57:54.507Z,12.87
2018-07-04T20:00:34.727Z,13.57
2018-07-04T20:03:16.533Z,10.77
2018-07-04T20:05:56.297Z,11.00
2018-07-04T20:08:36.255Z,11.97
2018-07-04T20:11:16.062Z,11.23
2018-07-04T20:16:40.720Z,10.83
2018-07-04T20:19:20.831Z,12.77
2018-07-04T20:22:00.905Z,15.20
2018-07-04T20:24:40.717Z,11.10
2018-07-04T20:27:20.378Z,9.67
2018-07-04T20:30:00.276Z,11.13
2018-07-04T20:32:41.080Z,10.23
2018-07-04T20:35:21.159Z,9.10
2018-07-04T20:38:01.830Z,12.40
2018-07-04T20:40:41.617Z,9.70
2018-07-04T20:43:21.532Z,11.00
2018-07-04T20:46:01.283Z,11.10
2018-07-04T20:48:41.059Z,13.87
2018-07-04T20:51:20.979Z,17.60
2018-07-04T20:54:00.974Z,16.37
2018-07-04T20:56:41.011Z,18.13
2018-07-04T20:59:20.958Z,15.90
2018-07-04T21:02:01.520Z,16.60
2018-07-04T21:04:41.680Z,17.27
2018-07-04T21:07:22.120Z,16.10
2018-07-04T21:10:01.965Z,15.20
2018-07-04T21:12:41.834Z,16.80
2018-07-04T21:15:22.204Z,12.83
2018-07-04T21:18:02.112Z,13.47
2018-07-04T21:20:41.935Z,13.50
2018-07-04T21:23:21.736Z,14.43
2018-07-04T21:26:01.473Z,14.90
2018-07-04T21:28:41.278Z,12.13
2018-07-04T21:31:21.242Z,11.00
2018-07-04T21:34:01.531Z,9.80
2018-07-04T21:36:41.799Z,13.00
2018-07-04T21:39:21.902Z,12.97
2018-07-04T21:42:01.798Z,20.83
2018-07-04T21:44:41.712Z,14.30
2018-07-04T21:47:21.561Z,18.07
2018-07-04T21:50:01.459Z,14.93
2018-07-04T21:52:41.381Z,20.93
2018-07-04T21:55:21.317Z,17.87
2018-07-04T21:58:02.118Z,15.87
2018-07-04T22:00:41.713Z,20.37
2018-07-04T22:03:21.284Z,19.33
2018-07-04T22:06:01.271Z,17.20
2018-07-04T22:08:41.034Z,17.27
2018-07-04T22:11:20.814Z,16.63
2018-07-04T22:14:01.327Z,13.83
2018-07-04T22:16:41.268Z,12.27
2018-07-04T22:19:20.902Z,13.47
2018-07-04T22:22:03.738Z,11.73
2018-07-04T22:24:43.616Z,18.17
2018-07-04T22:27:23.447Z,10.17
2018-07-04T22:30:07.449Z,9.90
2018-07-04T22:32:47.092Z,10.93
2018-07-04T22:35:26.762Z,9.83
2018-07-04T22:38:06.924Z,17.00
2018-07-04T22:40:47.112Z,18.73
2018-07-04T22:43:26.603Z,14.60
2018-07-04T22:46:06.987Z,12.43
2018-07-04T22:48:46.856Z,16.60
2018-07-04T22:51:26.954Z,11.47
2018-07-04T22:54:07.092Z,12.50
2018-07-04T22:56:46.874Z,11.90
2018-07-04T22:59:26.999Z,16.00
2018-07-04T23:02:07.825Z,12.13
2018-07-04T23:04:47.731Z,10.53
2018-07-04T23:07:28.441Z,10.50
2018-07-04T23:10:08.182Z,10.60
2018-07-04T23:12:48.640Z,11.20
2018-07-04T23:15:29.056Z,12.33
2018-07-04T23:18:08.861Z,10.30
2018-07-04T23:20:48.735Z,11.80
2018-07-04T23:23:28.820Z,11.67
2018-07-04T23:26:09.143Z,9.57
2018-07-04T23:28:48.871Z,10.40
2018-07-04T23:31:29.117Z,11.67
2018-07-04T23:34:09.930Z,11.67
2018-07-04T23:36:50.176Z,11.00
2018-07-04T23:39:30.754Z,11.70
2018-07-04T23:42:10.530Z,11.97
2018-07-04T23:44:50.953Z,12.90
2018-07-04T23:47:31.144Z,13.70
2018-07-04T23:50:11.144Z,11.30
2018-07-04T23:52:50.744Z,10.80
2018-07-04T23:55:31.359Z,11.83
2018-07-04T23:58:11.663Z,10.80
